sensor_id;sensor_type;location;lat;lon;timestamp;temperature;humidity
2767;DHT22;1391;46.742;11.636;2022-12-01T00:01:18;2.40;99.90
2767;DHT22;1391;46.742;11.636;2022-12-01T00:03:47;2.10;99.90
2767;DHT22;1391;46.742;11.636;2022-12-01T00:06:16;1.70;99.90
2767;DHT22;1391;46.742;11.636;2022-12-01T00:08:47;2.10;99.90
2767;DHT22;1391;46.742;11.636;2022-12-01T00:11:36;2.00;99.90
2767;DHT22;1391;46.742;11.636;2022-12-01T00:14:04;1.90;99.90
2767;DHT22;1391;46.742;11.636;2022-12-01T00:16:32;1.90;99.90
2767;DHT22;1391;46.742;11.636;2022-12-01T00:19:00;2.00;99.90
2767;DHT22;1391;46.742;11.636;2022-12-01T00:21:28;2.00;99.90
2767;DHT22;1391;46.742;11.636;2022-12-01T00:23:56;2.10;99.90
2767;DHT22;1391;46.742;11.636;2022-12-01T00:26:25;2.20;99.90
2767;DHT22;1391;46.742;11.636;2022-12-01T00:28:56;2.10;99.90
2767;DHT22;1391;46.742;11.636;2022-12-01T00:31:25;2.20;99.90
2767;DHT22;1391;46.742;11.636;2022-12-01T00:33:54;2.60;96.00
2767;DHT22;1391;46.742;11.636;2022-12-01T00:36:25;3.00;95.50
2767;DHT22;1391;46.742;11.636;2022-12-01T00:38:53;2.60;96.10
2767;DHT22;1391;46.742;11.636;2022-12-01T00:41:24;2.80;96.60
2767;DHT22;1391;46.742;11.636;2022-12-01T00:43:52;2.80;97.10
2767;DHT22;1391;46.742;11.636;2022-12-01T00:46:22;2.80;97.60
2767;DHT22;1391;46.742;11.636;2022-12-01T00:48:49;2.70;97.80
2767;DHT22;1391;46.742;11.636;2022-12-01T00:51:18;2.70;96.00
2767;DHT22;1391;46.742;11.636;2022-12-01T00:53:49;2.90;95.30
2767;DHT22;1391;46.742;11.636;2022-12-01T00:56:20;2.90;95.00
2767;DHT22;1391;46.742;11.636;2022-12-01T00:58:48;2.60;95.70
2767;DHT22;1391;46.742;11.636;2022-12-01T01:01:18;2.60;96.80
2767;DHT22;1391;46.742;11.636;2022-12-01T01:03:46;2.50;97.00
2767;DHT22;1391;46.742;11.636;2022-12-01T01:06:14;2.40;96.90
2767;DHT22;1391;46.742;11.636;2022-12-01T01:08:43;2.50;97.30
2767;DHT22;1391;46.742;11.636;2022-12-01T01:11:12;2.80;98.00
2767;DHT22;1391;46.742;11.636;2022-12-01T01:13:47;2.70;97.70
2767;DHT22;1391;46.742;11.636;2022-12-01T01:16:22;2.70;97.20
2767;DHT22;1391;46.742;11.636;2022-12-01T01:18:53;3.00;96.80
2767;DHT22;1391;46.742;11.636;2022-12-01T01:21:26;2.90;94.20
2767;DHT22;1391;46.742;11.636;2022-12-01T01:23:56;2.80;95.20
2767;DHT22;1391;46.742;11.636;2022-12-01T01:26:26;2.90;94.70
2767;DHT22;1391;46.742;11.636;2022-12-01T01:28:56;3.30;93.30
2767;DHT22;1391;46.742;11.636;2022-12-01T01:31:28;3.20;94.20
2767;DHT22;1391;46.742;11.636;2022-12-01T01:33:57;3.10;94.20
2767;DHT22;1391;46.742;11.636;2022-12-01T01:36:26;2.90;94.50
2767;DHT22;1391;46.742;11.636;2022-12-01T01:38:56;2.90;94.30
2767;DHT22;1391;46.742;11.636;2022-12-01T01:41:30;3.10;94.00
2767;DHT22;1391;46.742;11.636;2022-12-01T01:44:01;3.20;93.00
2767;DHT22;1391;46.742;11.636;2022-12-01T01:46:32;2.90;93.00
2767;DHT22;1391;46.742;11.636;2022-12-01T01:49:04;2.80;93.00
2767;DHT22;1391;46.742;11.636;2022-12-01T01:51:42;2.80;92.50
2767;DHT22;1391;46.742;11.636;2022-12-01T01:54:23;2.90;93.50
2767;DHT22;1391;46.742;11.636;2022-12-01T01:56:59;2.60;93.50
2767;DHT22;1391;46.742;11.636;2022-12-01T01:59:37;2.50;94.20
2767;DHT22;1391;46.742;11.636;2022-12-01T02:02:14;2.40;94.50
2767;DHT22;1391;46.742;11.636;2022-12-01T02:04:47;2.50;94.00
2767;DHT22;1391;46.742;11.636;2022-12-01T02:07:18;2.60;93.80
2767;DHT22;1391;46.742;11.636;2022-12-01T02:09:53;2.20;94.00
2767;DHT22;1391;46.742;11.636;2022-12-01T02:12:39;2.30;94.80
2767;DHT22;1391;46.742;11.636;2022-12-01T02:15:22;2.20;94.70
2767;DHT22;1391;46.742;11.636;2022-12-01T02:18:23;2.50;94.30
2767;DHT22;1391;46.742;11.636;2022-12-01T02:27:42;2.20;94.30
2767;DHT22;1391;46.742;11.636;2022-12-01T02:30:39;2.20;94.40
2767;DHT22;1391;46.742;11.636;2022-12-01T02:33:13;2.30;94.00
2767;DHT22;1391;46.742;11.636;2022-12-01T02:35:55;2.20;94.20
2767;DHT22;1391;46.742;11.636;2022-12-01T02:38:29;2.10;93.30
2767;DHT22;1391;46.742;11.636;2022-12-01T02:41:04;2.20;94.00
2767;DHT22;1391;46.742;11.636;2022-12-01T02:43:42;2.20;94.10
2767;DHT22;1391;46.742;11.636;2022-12-01T02:46:15;2.20;94.00
2767;DHT22;1391;46.742;11.636;2022-12-01T02:48:49;2.30;94.60
2767;DHT22;1391;46.742;11.636;2022-12-01T02:51:21;1.60;93.90
2767;DHT22;1391;46.742;11.636;2022-12-01T02:53:54;2.10;94.60
2767;DHT22;1391;46.742;11.636;2022-12-01T02:56:23;1.80;94.90
2767;DHT22;1391;46.742;11.636;2022-12-01T02:58:51;1.50;95.20
2767;DHT22;1391;46.742;11.636;2022-12-01T03:01:32;1.70;95.90
2767;DHT22;1391;46.742;11.636;2022-12-01T03:04:38;1.70;95.10
2767;DHT22;1391;46.742;11.636;2022-12-01T03:07:27;1.50;97.10
2767;DHT22;1391;46.742;11.636;2022-12-01T03:10:11;1.10;97.70
2767;DHT22;1391;46.742;11.636;2022-12-01T03:12:56;1.20;99.40
2767;DHT22;1391;46.742;11.636;2022-12-01T03:15:33;1.40;99.90
2767;DHT22;1391;46.742;11.636;2022-12-01T03:18:09;1.20;99.90
2767;DHT22;1391;46.742;11.636;2022-12-01T03:20:45;1.20;99.90
2767;DHT22;1391;46.742;11.636;2022-12-01T03:23:21;1.40;99.90
2767;DHT22;1391;46.742;11.636;2022-12-01T03:25:53;1.30;99.90
2767;DHT22;1391;46.742;11.636;2022-12-01T03:28:24;1.10;99.90
2767;DHT22;1391;46.742;11.636;2022-12-01T03:30:58;1.20;99.90
2767;DHT22;1391;46.742;11.636;2022-12-01T03:33:33;1.40;99.90
2767;DHT22;1391;46.742;11.636;2022-12-01T03:36:06;1.30;99.90
2767;DHT22;1391;46.742;11.636;2022-12-01T03:38:36;1.90;99.90
2767;DHT22;1391;46.742;11.636;2022-12-01T03:41:08;1.90;99.90
2767;DHT22;1391;46.742;11.636;2022-12-01T03:43:41;1.70;99.60
2767;DHT22;1391;46.742;11.636;2022-12-01T03:46:18;1.60;99.90
2767;DHT22;1391;46.742;11.636;2022-12-01T03:48:52;1.50;99.90
2767;DHT22;1391;46.742;11.636;2022-12-01T03:51:24;1.70;99.90
2767;DHT22;1391;46.742;11.636;2022-12-01T03:53:59;1.10;99.90
2767;DHT22;1391;46.742;11.636;2022-12-01T03:56:35;1.30;99.90
2767;DHT22;1391;46.742;11.636;2022-12-01T03:59:05;1.60;99.90
2767;DHT22;1391;46.742;11.636;2022-12-01T04:01:34;1.50;99.90
2767;DHT22;1391;46.742;11.636;2022-12-01T04:04:06;1.70;99.90
2767;DHT22;1391;46.742;11.636;2022-12-01T04:06:34;1.20;99.90
2767;DHT22;1391;46.742;11.636;2022-12-01T04:09:03;1.30;99.90
2767;DHT22;1391;46.742;11.636;2022-12-01T04:11:33;1.10;99.90
2767;DHT22;1391;46.742;11.636;2022-12-01T04:14:19;1.20;99.90
2767;DHT22;1391;46.742;11.636;2022-12-01T04:16:47;1.20;99.90
2767;DHT22;1391;46.742;11.636;2022-12-01T04:19:16;1.30;99.90
2767;DHT22;1391;46.742;11.636;2022-12-01T04:21:43;1.10;99.90
2767;DHT22;1391;46.742;11.636;2022-12-01T04:24:11;1.20;99.90
2767;DHT22;1391;46.742;11.636;2022-12-01T04:26:39;1.30;99.90
2767;DHT22;1391;46.742;11.636;2022-12-01T04:29:09;1.10;99.90
2767;DHT22;1391;46.742;11.636;2022-12-01T04:31:37;1.20;99.90
2767;DHT22;1391;46.742;11.636;2022-12-01T04:34:06;1.30;99.90
2767;DHT22;1391;46.742;11.636;2022-12-01T04:36:37;1.00;99.90
2767;DHT22;1391;46.742;11.636;2022-12-01T04:39:05;1.30;99.90
2767;DHT22;1391;46.742;11.636;2022-12-01T04:41:33;1.10;99.90
2767;DHT22;1391;46.742;11.636;2022-12-01T04:44:01;1.20;99.90
2767;DHT22;1391;46.742;11.636;2022-12-01T04:46:29;1.00;99.90
2767;DHT22;1391;46.742;11.636;2022-12-01T04:48:56;0.60;99.90
2767;DHT22;1391;46.742;11.636;2022-12-01T04:51:24;0.80;99.90
2767;DHT22;1391;46.742;11.636;2022-12-01T04:53:54;0.60;99.90
2767;DHT22;1391;46.742;11.636;2022-12-01T04:56:22;0.60;99.90
2767;DHT22;1391;46.742;11.636;2022-12-01T04:58:51;0.60;99.90
2767;DHT22;1391;46.742;11.636;2022-12-01T05:01:19;0.80;99.90
2767;DHT22;1391;46.742;11.636;2022-12-01T05:03:49;0.70;99.90
2767;DHT22;1391;46.742;11.636;2022-12-01T05:06:19;0.50;99.90
2767;DHT22;1391;46.742;11.636;2022-12-01T05:08:47;0.30;99.90
2767;DHT22;1391;46.742;11.636;2022-12-01T05:11:17;0.40;99.90
2767;DHT22;1391;46.742;11.636;2022-12-01T05:13:46;0.50;99.90
2767;DHT22;1391;46.742;11.636;2022-12-01T05:16:15;0.60;99.90
2767;DHT22;1391;46.742;11.636;2022-12-01T05:18:47;0.20;99.90
2767;DHT22;1391;46.742;11.636;2022-12-01T05:21:15;0.20;99.90
2767;DHT22;1391;46.742;11.636;2022-12-01T05:23:43;0.00;99.90
2767;DHT22;1391;46.742;11.636;2022-12-01T05:26:11;0.30;99.90
2767;DHT22;1391;46.742;11.636;2022-12-01T05:28:41;0.50;99.90
2767;DHT22;1391;46.742;11.636;2022-12-01T05:31:08;0.20;99.90
2767;DHT22;1391;46.742;11.636;2022-12-01T05:33:37;0.00;99.90
2767;DHT22;1391;46.742;11.636;2022-12-01T05:36:05;0.00;99.90
2767;DHT22;1391;46.742;11.636;2022-12-01T05:38:33;0.20;99.90
2767;DHT22;1391;46.742;11.636;2022-12-01T05:41:00;0.20;99.90
2767;DHT22;1391;46.742;11.636;2022-12-01T05:43:29;0.20;99.90
2767;DHT22;1391;46.742;11.636;2022-12-01T05:45:58;0.20;99.90
2767;DHT22;1391;46.742;11.636;2022-12-01T05:48:26;-0.20;99.90
2767;DHT22;1391;46.742;11.636;2022-12-01T05:50:57;-0.20;99.90
2767;DHT22;1391;46.742;11.636;2022-12-01T05:53:26;-0.20;99.90
2767;DHT22;1391;46.742;11.636;2022-12-01T05:55:54;-0.10;99.90
2767;DHT22;1391;46.742;11.636;2022-12-01T05:58:22;-0.10;99.90
2767;DHT22;1391;46.742;11.636;2022-12-01T06:00:50;-0.10;99.90
2767;DHT22;1391;46.742;11.636;2022-12-01T06:03:21;-0.30;99.90
2767;DHT22;1391;46.742;11.636;2022-12-01T06:05:50;-0.30;99.90
2767;DHT22;1391;46.742;11.636;2022-12-01T06:08:18;-0.10;99.90
2767;DHT22;1391;46.742;11.636;2022-12-01T06:10:45;0.00;99.90
2767;DHT22;1391;46.742;11.636;2022-12-01T06:13:12;0.20;99.90
2767;DHT22;1391;46.742;11.636;2022-12-01T06:15:40;0.00;99.90
2767;DHT22;1391;46.742;11.636;2022-12-01T06:18:08;-0.10;99.90
2767;DHT22;1391;46.742;11.636;2022-12-01T06:20:37;-0.10;99.90
2767;DHT22;1391;46.742;11.636;2022-12-01T06:23:05;-0.10;99.90
2767;DHT22;1391;46.742;11.636;2022-12-01T06:25:32;0.00;99.90
2767;DHT22;1391;46.742;11.636;2022-12-01T06:27:59;0.10;99.90
2767;DHT22;1391;46.742;11.636;2022-12-01T06:30:30;-0.30;99.90
2767;DHT22;1391;46.742;11.636;2022-12-01T06:32:59;-0.10;99.90
2767;DHT22;1391;46.742;11.636;2022-12-01T06:35:26;-0.10;99.90
2767;DHT22;1391;46.742;11.636;2022-12-01T06:37:55;0.00;99.90
2767;DHT22;1391;46.742;11.636;2022-12-01T06:40:27;0.10;99.90
2767;DHT22;1391;46.742;11.636;2022-12-01T06:42:58;0.00;99.90
2767;DHT22;1391;46.742;11.636;2022-12-01T06:45:28;0.10;99.90
2767;DHT22;1391;46.742;11.636;2022-12-01T06:47:56;0.00;99.90
2767;DHT22;1391;46.742;11.636;2022-12-01T06:50:25;0.30;99.90
2767;DHT22;1391;46.742;11.636;2022-12-01T06:52:55;0.60;99.90
2767;DHT22;1391;46.742;11.636;2022-12-01T06:55:25;0.20;99.90
2767;DHT22;1391;46.742;11.636;2022-12-01T06:57:54;0.20;99.90
2767;DHT22;1391;46.742;11.636;2022-12-01T07:00:24;0.20;99.90
2767;DHT22;1391;46.742;11.636;2022-12-01T07:02:51;0.60;99.90
2767;DHT22;1391;46.742;11.636;2022-12-01T07:05:20;0.80;99.90
2767;DHT22;1391;46.742;11.636;2022-12-01T07:07:48;0.80;99.90
2767;DHT22;1391;46.742;11.636;2022-12-01T07:10:18;0.70;99.90
2767;DHT22;1391;46.742;11.636;2022-12-01T07:12:46;0.60;99.90
2767;DHT22;1391;46.742;11.636;2022-12-01T07:15:13;0.70;99.90
2767;DHT22;1391;46.742;11.636;2022-12-01T07:17:41;1.30;99.90
2767;DHT22;1391;46.742;11.636;2022-12-01T07:20:10;1.10;99.90
2767;DHT22;1391;46.742;11.636;2022-12-01T07:22:39;1.10;99.90
2767;DHT22;1391;46.742;11.636;2022-12-01T07:25:08;1.20;99.90
2767;DHT22;1391;46.742;11.636;2022-12-01T07:27:37;1.30;99.90
2767;DHT22;1391;46.742;11.636;2022-12-01T07:30:06;1.10;99.90
2767;DHT22;1391;46.742;11.636;2022-12-01T07:32:34;1.20;99.90
2767;DHT22;1391;46.742;11.636;2022-12-01T07:35:02;1.20;99.90
2767;DHT22;1391;46.742;11.636;2022-12-01T07:37:32;1.20;99.90
2767;DHT22;1391;46.742;11.636;2022-12-01T07:40:00;1.40;99.90
2767;DHT22;1391;46.742;11.636;2022-12-01T07:42:27;1.40;99.90
2767;DHT22;1391;46.742;11.636;2022-12-01T07:44:57;1.30;99.90
2767;DHT22;1391;46.742;11.636;2022-12-01T07:47:25;1.20;99.90
2767;DHT22;1391;46.742;11.636;2022-12-01T07:49:53;1.50;99.90
2767;DHT22;1391;46.742;11.636;2022-12-01T07:52:21;1.60;99.90
2767;DHT22;1391;46.742;11.636;2022-12-01T07:54:51;1.50;99.90
2767;DHT22;1391;46.742;11.636;2022-12-01T07:57:19;1.60;99.90
2767;DHT22;1391;46.742;11.636;2022-12-01T07:59:46;1.40;99.90
2767;DHT22;1391;46.742;11.636;2022-12-01T08:02:17;1.90;99.90
2767;DHT22;1391;46.742;11.636;2022-12-01T08:04:45;1.80;99.90
2767;DHT22;1391;46.742;11.636;2022-12-01T08:07:13;2.10;99.90
2767;DHT22;1391;46.742;11.636;2022-12-01T08:09:40;2.20;99.90
2767;DHT22;1391;46.742;11.636;2022-12-01T08:12:10;2.40;99.90
2767;DHT22;1391;46.742;11.636;2022-12-01T08:14:40;2.50;99.90
2767;DHT22;1391;46.742;11.636;2022-12-01T08:17:09;2.90;99.90
2767;DHT22;1391;46.742;11.636;2022-12-01T08:19:38;2.90;99.90
2767;DHT22;1391;46.742;11.636;2022-12-01T08:22:06;3.30;99.90
2767;DHT22;1391;46.742;11.636;2022-12-01T08:24:33;2.90;99.50
2767;DHT22;1391;46.742;11.636;2022-12-01T08:27:01;3.00;97.70
2767;DHT22;1391;46.742;11.636;2022-12-01T08:29:28;3.70;97.40
2767;DHT22;1391;46.742;11.636;2022-12-01T08:31:56;3.70;96.70
2767;DHT22;1391;46.742;11.636;2022-12-01T08:34:24;3.60;96.60
2767;DHT22;1391;46.742;11.636;2022-12-01T08:36:54;4.00;96.40
2767;DHT22;1391;46.742;11.636;2022-12-01T08:39:22;4.00;95.10
2767;DHT22;1391;46.742;11.636;2022-12-01T08:41:50;3.90;95.80
2767;DHT22;1391;46.742;11.636;2022-12-01T08:44:17;4.30;94.10
2767;DHT22;1391;46.742;11.636;2022-12-01T08:46:45;4.10;92.30
2767;DHT22;1391;46.742;11.636;2022-12-01T08:49:12;4.40;92.60
2767;DHT22;1391;46.742;11.636;2022-12-01T08:51:40;4.10;92.10
2767;DHT22;1391;46.742;11.636;2022-12-01T08:54:10;4.10;91.60
2767;DHT22;1391;46.742;11.636;2022-12-01T08:56:40;3.80;92.00
2767;DHT22;1391;46.742;11.636;2022-12-01T08:59:09;4.40;91.20
2767;DHT22;1391;46.742;11.636;2022-12-01T09:01:37;4.70;91.00
2767;DHT22;1391;46.742;11.636;2022-12-01T09:04:17;4.70;88.60
2767;DHT22;1391;46.742;11.636;2022-12-01T09:06:55;5.10;88.90
2767;DHT22;1391;46.742;11.636;2022-12-01T09:09:27;4.80;88.00
2767;DHT22;1391;46.742;11.636;2022-12-01T09:11:56;4.40;88.10
2767;DHT22;1391;46.742;11.636;2022-12-01T09:14:35;4.80;90.00
2767;DHT22;1391;46.742;11.636;2022-12-01T09:17:04;5.00;87.00
2767;DHT22;1391;46.742;11.636;2022-12-01T09:19:32;5.20;84.40
2767;DHT22;1391;46.742;11.636;2022-12-01T09:21:59;5.10;85.40
2767;DHT22;1391;46.742;11.636;2022-12-01T09:24:31;5.30;82.90
2767;DHT22;1391;46.742;11.636;2022-12-01T09:26:59;6.00;84.40
2767;DHT22;1391;46.742;11.636;2022-12-01T09:29:28;6.20;79.70
2767;DHT22;1391;46.742;11.636;2022-12-01T09:31:56;6.70;77.10
2767;DHT22;1391;46.742;11.636;2022-12-01T09:34:24;6.30;76.90
2767;DHT22;1391;46.742;11.636;2022-12-01T09:36:54;6.30;76.60
2767;DHT22;1391;46.742;11.636;2022-12-01T09:39:23;6.10;74.70
2767;DHT22;1391;46.742;11.636;2022-12-01T09:41:55;6.50;74.70
2767;DHT22;1391;46.742;11.636;2022-12-01T09:44:32;6.50;73.90
2767;DHT22;1391;46.742;11.636;2022-12-01T09:47:07;7.20;71.40
2767;DHT22;1391;46.742;11.636;2022-12-01T09:49:44;6.70;72.00
2767;DHT22;1391;46.742;11.636;2022-12-01T09:52:15;6.70;71.90
2767;DHT22;1391;46.742;11.636;2022-12-01T09:54:45;6.60;72.30
2767;DHT22;1391;46.742;11.636;2022-12-01T09:57:21;6.60;72.10
2767;DHT22;1391;46.742;11.636;2022-12-01T09:59:55;6.70;71.60
2767;DHT22;1391;46.742;11.636;2022-12-01T10:02:29;6.90;72.10
2767;DHT22;1391;46.742;11.636;2022-12-01T10:05:03;7.00;72.10
2767;DHT22;1391;46.742;11.636;2022-12-01T10:07:35;6.90;71.00
2767;DHT22;1391;46.742;11.636;2022-12-01T10:10:06;7.10;70.20
2767;DHT22;1391;46.742;11.636;2022-12-01T10:12:43;7.10;70.20
2767;DHT22;1391;46.742;11.636;2022-12-01T10:15:29;7.70;69.90
2767;DHT22;1391;46.742;11.636;2022-12-01T10:18:15;7.20;69.50
2767;DHT22;1391;46.742;11.636;2022-12-01T10:20:55;7.00;67.30
2767;DHT22;1391;46.742;11.636;2022-12-01T10:23:41;7.20;66.50
2767;DHT22;1391;46.742;11.636;2022-12-01T10:26:18;7.50;64.70
2767;DHT22;1391;46.742;11.636;2022-12-01T10:29:09;7.80;64.40
2767;DHT22;1391;46.742;11.636;2022-12-01T10:31:45;8.60;64.10
2767;DHT22;1391;46.742;11.636;2022-12-01T10:34:20;8.60;62.30
2767;DHT22;1391;46.742;11.636;2022-12-01T10:36:49;8.70;62.00
2767;DHT22;1391;46.742;11.636;2022-12-01T10:39:19;9.00;58.60
2767;DHT22;1391;46.742;11.636;2022-12-01T10:41:51;8.50;61.80
2767;DHT22;1391;46.742;11.636;2022-12-01T10:44:30;8.90;60.40
2767;DHT22;1391;46.742;11.636;2022-12-01T10:46:57;9.10;59.20
2767;DHT22;1391;46.742;11.636;2022-12-01T10:49:35;9.10;60.20
2767;DHT22;1391;46.742;11.636;2022-12-01T10:52:05;9.00;55.30
2767;DHT22;1391;46.742;11.636;2022-12-01T10:54:35;8.90;55.80
2767;DHT22;1391;46.742;11.636;2022-12-01T10:57:05;9.00;55.10
2767;DHT22;1391;46.742;11.636;2022-12-01T10:59:37;8.90;56.30
2767;DHT22;1391;46.742;11.636;2022-12-01T11:02:16;9.30;55.70
2767;DHT22;1391;46.742;11.636;2022-12-01T11:04:51;9.60;54.50
2767;DHT22;1391;46.742;11.636;2022-12-01T11:07:23;9.10;56.10
2767;DHT22;1391;46.742;11.636;2022-12-01T11:10:11;9.20;56.40
2767;DHT22;1391;46.742;11.636;2022-12-01T11:12:42;9.20;57.90
2767;DHT22;1391;46.742;11.636;2022-12-01T11:15:22;9.00;53.80
2767;DHT22;1391;46.742;11.636;2022-12-01T11:17:57;9.10;55.60
2767;DHT22;1391;46.742;11.636;2022-12-01T11:20:36;9.40;54.80
2767;DHT22;1391;46.742;11.636;2022-12-01T11:23:25;9.10;54.50
2767;DHT22;1391;46.742;11.636;2022-12-01T11:25:58;8.40;56.00
2767;DHT22;1391;46.742;11.636;2022-12-01T11:28:32;8.40;57.80
2767;DHT22;1391;46.742;11.636;2022-12-01T11:31:05;8.40;58.50
2767;DHT22;1391;46.742;11.636;2022-12-01T11:33:43;8.80;58.40
2767;DHT22;1391;46.742;11.636;2022-12-01T11:36:20;9.10;56.80
2767;DHT22;1391;46.742;11.636;2022-12-01T11:38:49;8.90;57.30
2767;DHT22;1391;46.742;11.636;2022-12-01T11:41:29;8.90;56.80
2767;DHT22;1391;46.742;11.636;2022-12-01T11:44:00;9.00;57.60
2767;DHT22;1391;46.742;11.636;2022-12-01T11:46:43;8.20;57.00
2767;DHT22;1391;46.742;11.636;2022-12-01T11:49:16;8.70;56.90
2767;DHT22;1391;46.742;11.636;2022-12-01T11:51:45;8.50;58.80
2767;DHT22;1391;46.742;11.636;2022-12-01T11:54:15;8.90;57.70
2767;DHT22;1391;46.742;11.636;2022-12-01T11:56:45;9.00;56.50
2767;DHT22;1391;46.742;11.636;2022-12-01T11:59:17;8.80;57.20
2767;DHT22;1391;46.742;11.636;2022-12-01T12:02:16;8.90;56.60
2767;DHT22;1391;46.742;11.636;2022-12-01T12:05:10;9.00;58.20
2767;DHT22;1391;46.742;11.636;2022-12-01T12:08:00;8.90;49.40
2767;DHT22;1391;46.742;11.636;2022-12-01T12:10:40;9.10;49.00
2767;DHT22;1391;46.742;11.636;2022-12-01T12:13:31;9.20;48.00
2767;DHT22;1391;46.742;11.636;2022-12-01T12:16:13;9.20;49.30
2767;DHT22;1391;46.742;11.636;2022-12-01T12:18:55;8.70;53.50
2767;DHT22;1391;46.742;11.636;2022-12-01T12:21:41;8.50;51.10
2767;DHT22;1391;46.742;11.636;2022-12-01T12:24:24;9.00;50.50
2767;DHT22;1391;46.742;11.636;2022-12-01T12:27:09;9.10;49.50
2767;DHT22;1391;46.742;11.636;2022-12-01T12:29:54;8.90;48.00
2767;DHT22;1391;46.742;11.636;2022-12-01T12:32:50;9.00;45.90
2767;DHT22;1391;46.742;11.636;2022-12-01T12:35:51;8.90;48.80
2767;DHT22;1391;46.742;11.636;2022-12-01T12:38:47;9.10;46.00
2767;DHT22;1391;46.742;11.636;2022-12-01T12:41:26;9.00;48.00
2767;DHT22;1391;46.742;11.636;2022-12-01T12:44:07;8.80;47.30
2767;DHT22;1391;46.742;11.636;2022-12-01T12:46:46;9.00;45.50
2767;DHT22;1391;46.742;11.636;2022-12-01T12:49:31;9.00;48.30
2767;DHT22;1391;46.742;11.636;2022-12-01T12:52:09;9.10;48.20
2767;DHT22;1391;46.742;11.636;2022-12-01T12:54:44;8.30;50.00
2767;DHT22;1391;46.742;11.636;2022-12-01T12:57:25;8.20;52.90
2767;DHT22;1391;46.742;11.636;2022-12-01T13:00:02;8.00;54.60
2767;DHT22;1391;46.742;11.636;2022-12-01T13:02:36;9.00;48.90
2767;DHT22;1391;46.742;11.636;2022-12-01T13:05:11;8.90;48.90
2767;DHT22;1391;46.742;11.636;2022-12-01T13:07:51;8.90;49.80
2767;DHT22;1391;46.742;11.636;2022-12-01T13:10:27;8.60;51.70
2767;DHT22;1391;46.742;11.636;2022-12-01T13:13:14;7.90;53.30
2767;DHT22;1391;46.742;11.636;2022-12-01T13:15:47;7.80;54.60
2767;DHT22;1391;46.742;11.636;2022-12-01T13:18:26;7.80;55.70
2767;DHT22;1391;46.742;11.636;2022-12-01T13:21:02;8.00;56.10
2767;DHT22;1391;46.742;11.636;2022-12-01T13:23:34;7.40;57.50
2767;DHT22;1391;46.742;11.636;2022-12-01T13:26:05;7.70;55.00
2767;DHT22;1391;46.742;11.636;2022-12-01T13:28:38;7.70;56.50
2767;DHT22;1391;46.742;11.636;2022-12-01T13:31:10;7.60;58.30
2767;DHT22;1391;46.742;11.636;2022-12-01T13:33:45;6.90;59.90
2767;DHT22;1391;46.742;11.636;2022-12-01T13:36:20;7.00;61.90
2767;DHT22;1391;46.742;11.636;2022-12-01T13:38:57;7.10;60.00
2767;DHT22;1391;46.742;11.636;2022-12-01T13:41:28;6.90;60.40
2767;DHT22;1391;46.742;11.636;2022-12-01T13:44:01;7.40;56.80
2767;DHT22;1391;46.742;11.636;2022-12-01T13:46:50;7.30;57.80
2767;DHT22;1391;46.742;11.636;2022-12-01T13:49:39;7.30;59.00
2767;DHT22;1391;46.742;11.636;2022-12-01T13:52:28;7.50;60.00
2767;DHT22;1391;46.742;11.636;2022-12-01T13:55:22;7.00;60.70
2767;DHT22;1391;46.742;11.636;2022-12-01T13:58:23;6.80;61.20
2767;DHT22;1391;46.742;11.636;2022-12-01T14:04:29;7.00;62.80
2767;DHT22;1391;46.742;11.636;2022-12-01T14:07:25;6.90;62.00
2767;DHT22;1391;46.742;11.636;2022-12-01T14:10:22;6.90;61.30
2767;DHT22;1391;46.742;11.636;2022-12-01T14:12:52;6.90;59.20
2767;DHT22;1391;46.742;11.636;2022-12-01T14:15:29;7.30;60.10
2767;DHT22;1391;46.742;11.636;2022-12-01T14:18:19;7.30;60.50
2767;DHT22;1391;46.742;11.636;2022-12-01T14:20:54;7.00;61.60
2767;DHT22;1391;46.742;11.636;2022-12-01T14:23:26;6.70;61.50
2767;DHT22;1391;46.742;11.636;2022-12-01T14:26:04;7.00;61.90
2767;DHT22;1391;46.742;11.636;2022-12-01T14:29:07;7.00;62.20
2767;DHT22;1391;46.742;11.636;2022-12-01T14:34:57;6.00;64.10
2767;DHT22;1391;46.742;11.636;2022-12-01T14:37:34;6.00;64.20
2767;DHT22;1391;46.742;11.636;2022-12-01T14:40:12;6.00;65.00
2767;DHT22;1391;46.742;11.636;2022-12-01T14:42:49;6.60;63.20
2767;DHT22;1391;46.742;11.636;2022-12-01T14:45:40;6.50;64.40
2767;DHT22;1391;46.742;11.636;2022-12-01T14:48:17;6.60;64.10
2767;DHT22;1391;46.742;11.636;2022-12-01T14:50:54;6.20;64.40
2767;DHT22;1391;46.742;11.636;2022-12-01T14:53:36;6.40;61.30
2767;DHT22;1391;46.742;11.636;2022-12-01T14:56:10;7.00;60.40
2767;DHT22;1391;46.742;11.636;2022-12-01T14:58:50;6.80;63.10
2767;DHT22;1391;46.742;11.636;2022-12-01T15:01:20;6.60;62.70
2767;DHT22;1391;46.742;11.636;2022-12-01T15:03:52;6.70;63.00
2767;DHT22;1391;46.742;11.636;2022-12-01T15:06:25;6.60;62.70
2767;DHT22;1391;46.742;11.636;2022-12-01T15:09:05;7.00;61.60
2767;DHT22;1391;46.742;11.636;2022-12-01T15:11:35;6.60;62.10
2767;DHT22;1391;46.742;11.636;2022-12-01T15:14:21;6.50;61.90
2767;DHT22;1391;46.742;11.636;2022-12-01T15:16:55;6.40;62.10
2767;DHT22;1391;46.742;11.636;2022-12-01T15:19:31;6.10;61.90
2767;DHT22;1391;46.742;11.636;2022-12-01T15:22:04;6.00;62.80
2767;DHT22;1391;46.742;11.636;2022-12-01T15:24:33;6.20;63.10
2767;DHT22;1391;46.742;11.636;2022-12-01T15:27:01;6.20;64.00
2767;DHT22;1391;46.742;11.636;2022-12-01T15:29:32;6.00;64.30
2767;DHT22;1391;46.742;11.636;2022-12-01T15:32:05;5.80;65.10
2767;DHT22;1391;46.742;11.636;2022-12-01T15:34:39;5.40;66.40
2767;DHT22;1391;46.742;11.636;2022-12-01T15:37:10;5.70;66.90
2767;DHT22;1391;46.742;11.636;2022-12-01T15:39:43;5.50;67.00
2767;DHT22;1391;46.742;11.636;2022-12-01T15:42:21;5.10;68.10
2767;DHT22;1391;46.742;11.636;2022-12-01T15:44:59;5.40;66.40
2767;DHT22;1391;46.742;11.636;2022-12-01T15:47:32;5.70;66.60
2767;DHT22;1391;46.742;11.636;2022-12-01T15:50:02;5.40;66.00
2767;DHT22;1391;46.742;11.636;2022-12-01T15:52:31;5.70;66.10
2767;DHT22;1391;46.742;11.636;2022-12-01T15:55:21;5.70;66.40
2767;DHT22;1391;46.742;11.636;2022-12-01T15:57:51;5.50;64.50
2767;DHT22;1391;46.742;11.636;2022-12-01T16:00:24;5.90;63.60
2767;DHT22;1391;46.742;11.636;2022-12-01T16:02:54;5.80;63.50
2767;DHT22;1391;46.742;11.636;2022-12-01T16:05:26;5.80;64.10
2767;DHT22;1391;46.742;11.636;2022-12-01T16:07:54;5.50;64.20
2767;DHT22;1391;46.742;11.636;2022-12-01T16:10:32;5.40;65.20
2767;DHT22;1391;46.742;11.636;2022-12-01T16:13:36;5.40;65.10
2767;DHT22;1391;46.742;11.636;2022-12-01T16:19:28;5.10;67.20
2767;DHT22;1391;46.742;11.636;2022-12-01T16:22:13;5.00;68.10
2767;DHT22;1391;46.742;11.636;2022-12-01T16:24:47;4.70;68.30
2767;DHT22;1391;46.742;11.636;2022-12-01T16:27:22;5.40;64.70
2767;DHT22;1391;46.742;11.636;2022-12-01T16:29:52;5.80;64.30
2767;DHT22;1391;46.742;11.636;2022-12-01T16:32:26;6.00;62.20
2767;DHT22;1391;46.742;11.636;2022-12-01T16:35:01;6.60;61.50
2767;DHT22;1391;46.742;11.636;2022-12-01T16:37:29;6.30;60.00
2767;DHT22;1391;46.742;11.636;2022-12-01T16:39:57;6.60;60.20
2767;DHT22;1391;46.742;11.636;2022-12-01T16:42:26;6.40;61.40
2767;DHT22;1391;46.742;11.636;2022-12-01T16:44:54;6.00;61.90
2767;DHT22;1391;46.742;11.636;2022-12-01T16:47:23;6.10;63.50
2767;DHT22;1391;46.742;11.636;2022-12-01T16:49:52;5.60;63.10
2767;DHT22;1391;46.742;11.636;2022-12-01T16:52:19;5.40;64.00
2767;DHT22;1391;46.742;11.636;2022-12-01T16:54:47;5.80;64.50
2767;DHT22;1391;46.742;11.636;2022-12-01T16:57:15;5.10;64.80
2767;DHT22;1391;46.742;11.636;2022-12-01T16:59:43;5.70;65.00